Mar Iberico — CUDL8 — position and weather

sailwx.info

Track history (hours):
 
Tides and Currents Weather Stations Pressure Air Temp Water Temp Dewpoint Dewpoint Depression Visibility Wind Speed Wind Dir Waves Ship Positions

Mar Iberico

Last reported at 2017-Dec-18 12:30 UTC. Time now 2017-Dec-18 12:41 UTC.
Position N 43°33' W 002°17'.

Length 30 m; draft 5 m.

Type: Fishing. MMSI: 263407550.

Date/timePositionNaut miles runAvg speedWind from/ knotsBaromVisibWave heightAir tempDewpointWater temp
2017-Dec-18 12:30N 43°33' W 002°17'2 3.7
2017-Dec-18 12:00N 43°33' W 002°19'1 2.5
2017-Dec-18 11:30N 43°34' W 002°19'1 3.0
2017-Dec-18 11:00N 43°34' W 002°17'1 3.0
2017-Dec-18 10:30N 43°34' W 002°15'2 3.3
2017-Dec-18 10:00N 43°34' W 002°13'1 2.2
2017-Dec-18 09:30N 43°35' W 002°13'2 3.1
2017-Dec-18 09:00N 43°35' W 002°15'2 3.1
2017-Dec-18 08:30N 43°35' W 002°17'2 3.1
2017-Dec-18 08:00N 43°34' W 002°19'1 2.3
2017-Dec-18 07:30N 43°34' W 002°20'0 0.2
2017-Dec-18 07:00N 43°34' W 002°20'1 3.0
2017-Dec-18 06:30N 43°33' W 002°18'2 3.1
2017-Dec-18 06:00N 43°33' W 002°16'2 3.0
2017-Dec-18 05:30N 43°32' W 002°15'2 3.0
2017-Dec-18 05:00N 43°31' W 002°13'2 3.4
2017-Dec-18 04:30N 43°32' W 002°10'2 3.1
2017-Dec-18 04:00N 43°33' W 002°12'2 3.1
2017-Dec-18 03:30N 43°34' W 002°14'2 3.1
2017-Dec-18 03:00N 43°34' W 002°16'2 3.3
2017-Dec-18 02:30N 43°34' W 002°18'2 3.5
2017-Dec-18 02:00N 43°33' W 002°21'2 3.1
2017-Dec-18 01:30N 43°33' W 002°19'2 3.2
2017-Dec-18 01:00N 43°32' W 002°17'2 3.2
2017-Dec-18 00:30N 43°32' W 002°14'2 3.2
2017-Dec-18 00:01N 43°32' W 002°12'2 3.1
2017-Dec-17 23:30N 43°32' W 002°10'1 1.5
2017-Dec-17 23:00N 43°32' W 002°09'0 0.4
2017-Dec-17 22:30N 43°32' W 002°09'1 3.0
2017-Dec-17 22:00N 43°33' W 002°11'2 3.1
2017-Dec-17 21:30N 43°34' W 002°13'2 3.2
2017-Dec-17 21:00N 43°34' W 002°15'2 3.1
2017-Dec-17 20:30N 43°33' W 002°17'2 3.4
2017-Dec-17 20:00N 43°33' W 002°19'1 2.6
2017-Dec-17 19:30N 43°35' W 002°19'2 3.1
2017-Dec-17 19:00N 43°35' W 002°17'2 3.0
2017-Dec-17 18:30N 43°35' W 002°15'2 3.1
2017-Dec-17 18:00N 43°35' W 002°13'2 3.3
2017-Dec-17 17:31N 43°34' W 002°11'2 3.2
2017-Dec-17 17:00N 43°34' W 002°08'2 3.0
2017-Dec-17 16:30N 43°34' W 002°06'2 3.9
2017-Dec-17 16:00N 43°34' W 002°04'0 0.3
2017-Dec-17 15:30N 43°34' W 002°04'1 2.0
2017-Dec-17 15:00N 43°34' W 002°05'2 3.1
2017-Dec-17 14:30N 43°34' W 002°07'2 3.2
2017-Dec-17 14:00N 43°34' W 002°10'2 3.2
2017-Dec-17 13:30N 43°34' W 002°12'2 3.0
2017-Dec-17 13:00N 43°34' W 002°14'2 3.1
2017-Dec-17 12:30N 43°34' W 002°16'2 3.1
2017-Dec-17 12:00N 43°33' W 002°18'2 3.8
2017-Dec-17 11:30N 43°34' W 002°21'1 2.5
2017-Dec-17 11:00N 43°34' W 002°19'2 3.1
2017-Dec-17 10:30N 43°34' W 002°17'2 3.1
2017-Dec-17 10:00N 43°34' W 002°15'2 3.1
2017-Dec-17 09:30N 43°34' W 002°13'2 3.0
2017-Dec-17 09:00N 43°33' W 002°11'2 4.0
2017-Dec-17 08:30N 43°32' W 002°09'0 0.3
2017-Dec-17 08:00N 43°32' W 002°09'1 1.1
2017-Dec-17 07:30N 43°32' W 002°10'2 3.2
2017-Dec-17 07:00N 43°33' W 002°12'2 3.1
2017-Dec-17 06:30N 43°33' W 002°14'2 3.0
2017-Dec-17 06:00N 43°33' W 002°16'2 3.1
2017-Dec-17 05:30N 43°33' W 002°18'2 3.9
2017-Dec-17 05:00N 43°33' W 002°21'1 2.8
2017-Dec-17 04:30N 43°34' W 002°19'2 3.0
2017-Dec-17 04:00N 43°35' W 002°17'2 3.1
2017-Dec-17 03:30N 43°34' W 002°15'2 3.1
2017-Dec-17 03:00N 43°35' W 002°13'2 3.5
2017-Dec-17 02:30N 43°34' W 002°11'2 3.3
2017-Dec-17 02:00N 43°34' W 002°08'2 3.0
2017-Dec-17 01:30N 43°34' W 002°06'1 3.0
2017-Dec-17 01:00N 43°33' W 002°04'3 5.4
2017-Dec-17 00:30N 43°33' W 002°01'0 0.4
2017-Dec-17 00:00N 43°33' W 002°00'1 1.7
2017-Dec-16 23:30N 43°33' W 002°01'2 3.3
2017-Dec-16 23:00N 43°33' W 002°04'2 3.3
2017-Dec-16 22:30N 43°33' W 002°06'2 3.1
2017-Dec-16 22:00N 43°33' W 002°08'2 3.1
2017-Dec-16 21:30N 43°33' W 002°10'2 3.1
2017-Dec-16 21:00N 43°33' W 002°12'2 3.1
2017-Dec-16 20:30N 43°33' W 002°15'2 3.2
2017-Dec-16 20:00N 43°33' W 002°17'1 2.9
2017-Dec-16 19:30N 43°33' W 002°19'2 3.3
2017-Dec-16 19:00N 43°34' W 002°20'1 3.0
2017-Dec-16 18:30N 43°35' W 002°18'1 3.0
2017-Dec-16 18:00N 43°35' W 002°16'1 3.0
2017-Dec-16 17:30N 43°35' W 002°14'1 3.0
2017-Dec-16 17:00N 43°34' W 002°12'1 2.4
2017-Dec-16 16:31N 43°33' W 002°11'0 0.8
2017-Dec-16 16:00N 43°33' W 002°12'2 3.1
2017-Dec-16 15:30N 43°34' W 002°14'2 3.1
2017-Dec-16 15:00N 43°34' W 002°16'2 3.1
2017-Dec-16 14:30N 43°34' W 002°18'2 4.0
2017-Dec-16 14:01N 43°34' W 002°21'1 2.7
2017-Dec-16 13:30N 43°33' W 002°19'2 3.0
2017-Dec-16 13:00N 43°33' W 002°17'1 3.0
2017-Dec-16 12:30N 43°33' W 002°15'2 3.0
2017-Dec-16 12:00N 43°33' W 002°13'1 2.9
2017-Dec-16 11:30N 43°34' W 002°11'1 2.9
2017-Dec-16 11:00N 43°34' W 002°13'1 3.0
2017-Dec-16 10:30N 43°34' W 002°15'2 3.1
2017-Dec-16 10:00N 43°34' W 002°17'2 3.6
2017-Dec-16 09:30N 43°34' W 002°20'1 2.5
2017-Dec-16 09:00N 43°35' W 002°19'2 3.0
2017-Dec-16 08:31N 43°35' W 002°17'1 2.9
2017-Dec-16 08:00N 43°34' W 002°15'2 3.2
2017-Dec-16 07:30N 43°34' W 002°12'1 2.9
2017-Dec-16 07:00N 43°34' W 002°10'0 0.2
2017-Dec-16 06:30N 43°34' W 002°10'0 1.0
2017-Dec-16 06:00N 43°34' W 002°10'0 0.2
2017-Dec-16 05:30N 43°34' W 002°10'0 0.9
2017-Dec-16 05:00N 43°34' W 002°10'1 1.8
2017-Dec-16 04:30N 43°34' W 002°09'0 0.9
2017-Dec-16 04:00N 43°34' W 002°10'0 0.4
2017-Dec-16 03:30N 43°34' W 002°10'1 2.3
2017-Dec-16 03:00N 43°33' W 002°09'2 3.4
2017-Dec-16 02:30N 43°32' W 002°08'2 4.6
2017-Dec-16 02:00N 43°30' W 002°06'2 4.8
2017-Dec-16 01:30N 43°28' W 002°04'3 4.9
2017-Dec-16 01:00N 43°26' W 002°02'3 5.3
2017-Dec-16 00:31N 43°24' W 001°60'2 4.9
2017-Dec-16 00:00N 43°22' W 001°58'3 5.0
2017-Dec-15 23:22N 43°19' W 001°55'0 0.1
2017-Dec-15 21:13N 43°19' W 001°55'0 0.0
2017-Dec-15 17:01N 43°19' W 001°55'0 0.0
2017-Dec-15 16:51N 43°19' W 001°55'0 0.0
2017-Dec-15 16:08N 43°19' W 001°55'0 0.0
2017-Dec-15 15:49N 43°19' W 001°55'0 0.0
2017-Dec-15 10:50N 43°19' W 001°55'0 0.3
2017-Dec-15 10:30N 43°19' W 001°55'0 0.0
2017-Dec-15 10:00N 43°19' W 001°55'1 2.0
2017-Dec-15 09:25N 43°20' W 001°56'4 9.2
2017-Dec-15 09:01N 43°23' W 001°59'4 8.8
2017-Dec-15 08:31N 43°27' W 002°03'4 7.3
2017-Dec-15 08:01N 43°30' W 002°06'3 5.2
2017-Dec-15 07:31N 43°32' W 002°08'0 0.4
2017-Dec-15 07:00N 43°32' W 002°08'0 0.7
2017-Dec-15 06:31N 43°32' W 002°09'0 0.4
2017-Dec-15 06:01N 43°31' W 002°09'1 1.7
2017-Dec-15 05:31N 43°31' W 002°08'1 2.3
2017-Dec-15 05:00N 43°30' W 002°08'1 1.5
2017-Dec-15 04:30N 43°29' W 002°07'1 2.0
2017-Dec-15 04:00N 43°29' W 002°06'2 1.6
2017-Dec-15 02:30N 43°29' W 002°03'2 1.3
2017-Dec-15 01:01N 43°29' W 002°00'1 2.6
2017-Dec-15 00:30N 43°29' W 001°58'9 1.5
2017-Dec-14 18:31N 43°32' W 002°10'2 3.1
2017-Dec-14 18:00N 43°33' W 002°12'2 3.0
2017-Dec-14 17:30N 43°33' W 002°14'2 3.0
2017-Dec-14 17:01N 43°33' W 002°16'2 3.0
2017-Dec-14 16:31N 43°33' W 002°18'2 3.6
2017-Dec-14 16:01N 43°34' W 002°21'3 2.8
2017-Dec-14 15:00N 43°34' W 002°17'1 3.0
2017-Dec-14 14:31N 43°34' W 002°15'1 2.9
2017-Dec-14 14:01N 43°33' W 002°13'2 3.0
2017-Dec-14 13:31N 43°33' W 002°11'1 1.4
2017-Dec-14 13:00N 43°32' W 002°10'4 7.2
2017-Dec-14 12:31N 43°33' W 002°15'0 0.7
2017-Dec-14 12:01N 43°32' W 002°15'2 3.3
2017-Dec-14 11:30N 43°32' W 002°13'2 3.2
2017-Dec-14 11:01N 43°34' W 002°13'2 3.1
2017-Dec-14 10:31N 43°34' W 002°15'2 3.1
2017-Dec-14 10:01N 43°34' W 002°17'2 3.8
2017-Dec-14 09:30N 43°34' W 002°20'1 2.4
2017-Dec-14 09:00N 43°34' W 002°18'1 2.9
2017-Dec-14 08:30N 43°34' W 002°17'1 2.9
2017-Dec-14 08:00N 43°34' W 002°15'1 2.9
2017-Dec-14 07:31N 43°34' W 002°13'2 3.7
2017-Dec-14 07:01N 43°34' W 002°10'0 0.3
2017-Dec-14 06:31N 43°34' W 002°10'0 0.4
2017-Dec-14 06:00N 43°34' W 002°10'1 2.9
2017-Dec-14 05:30N 43°33' W 002°09'2 4.6
2017-Dec-14 05:01N 43°31' W 002°07'3 6.7
2017-Dec-14 04:30N 43°29' W 002°04'3 6.8
2017-Dec-14 04:00N 43°26' W 002°01'3 6.9
2017-Dec-14 03:30N 43°23' W 001°58'4 2.0
2017-Dec-14 01:40N 43°20' W 001°56'2 7.5
2017-Dec-14 01:28N 43°21' W 001°57'4 8.9
2017-Dec-14 01:01N 43°24' W 002°01'5 9.0
2017-Dec-14 00:31N 43°28' W 002°05'4 9.0
2017-Dec-14 00:00N 43°31' W 002°09'1 1.3
2017-Dec-13 23:30N 43°31' W 002°10'2 3.1
2017-Dec-13 23:00N 43°32' W 002°12'2 3.1
2017-Dec-13 22:31N 43°33' W 002°14'2 3.3
2017-Dec-13 22:01N 43°33' W 002°16'2 3.9
2017-Dec-13 21:31N 43°33' W 002°18'1 2.6
2017-Dec-13 21:01N 43°32' W 002°17'2 3.1
2017-Dec-13 20:30N 43°32' W 002°15'2 3.1
2017-Dec-13 20:01N 43°32' W 002°13'2 3.6
2017-Dec-13 19:30N 43°33' W 002°11'1 1.5
2017-Dec-13 19:00N 43°33' W 002°12'1 1.7
2017-Dec-13 18:30N 43°33' W 002°13'3 3.1
2017-Dec-13 17:40N 43°33' W 002°16'0 3.1
2017-Dec-13 17:30N 43°33' W 002°17'2 3.6
2017-Dec-13 17:01N 43°33' W 002°20'1 2.4
2017-Dec-13 16:31N 43°34' W 002°20'1 3.0
2017-Dec-13 16:01N 43°34' W 002°18'2 3.0
2017-Dec-13 15:31N 43°34' W 002°16'2 3.1
2017-Dec-13 15:00N 43°34' W 002°14'2 3.1
2017-Dec-13 14:31N 43°33' W 002°12'2 3.8
2017-Dec-13 14:01N 43°32' W 002°10'1 1.1
2017-Dec-13 13:31N 43°32' W 002°10'1 1.2
2017-Dec-13 13:01N 43°33' W 002°11'2 3.2
2017-Dec-13 12:30N 43°34' W 002°12'2 3.1
2017-Dec-13 12:00N 43°34' W 002°14'2 3.1
2017-Dec-13 11:30N 43°33' W 002°16'2 3.1
2017-Dec-13 11:00N 43°33' W 002°19'1 2.7
2017-Dec-13 10:30N 43°34' W 002°20'1 3.0
2017-Dec-13 10:00N 43°34' W 002°18'2 3.1
2017-Dec-13 09:31N 43°34' W 002°15'2 3.1
2017-Dec-13 09:01N 43°33' W 002°13'1 2.0
2017-Dec-13 08:30N 43°34' W 002°13'2 3.1
2017-Dec-13 08:00N 43°35' W 002°15'1 3.0
2017-Dec-13 07:30N 43°34' W 002°17'2 3.7
2017-Dec-13 07:01N 43°34' W 002°20'1 1.5
2017-Dec-13 06:31N 43°33' W 002°19'1 1.1
2017-Dec-13 06:01N 43°33' W 002°20'1 2.8
2017-Dec-13 05:30N 43°33' W 002°18'2 3.1
2017-Dec-13 05:00N 43°33' W 002°16'2 3.1
2017-Dec-13 04:30N 43°32' W 002°14'2 3.6
2017-Dec-13 04:01N 43°32' W 002°12'2 3.3
2017-Dec-13 03:30N 43°34' W 002°12'2 3.2
2017-Dec-13 03:00N 43°34' W 002°14'2 3.2
2017-Dec-13 02:30N 43°34' W 002°16'2 3.9
2017-Dec-13 02:01N 43°34' W 002°19'1 2.7
2017-Dec-13 01:30N 43°33' W 002°19'2 3.2
2017-Dec-13 01:00N 43°32' W 002°17'2 3.2
2017-Dec-13 00:31N 43°32' W 002°15'2 3.2
2017-Dec-13 00:00N 43°32' W 002°12'2 3.1
2017-Dec-12 23:30N 43°32' W 002°10'2 3.1
2017-Dec-12 23:01N 43°32' W 002°08'2 3.1
2017-Dec-12 22:31N 43°32' W 002°06'2 3.1
2017-Dec-12 22:00N 43°33' W 002°04'2 3.6
2017-Dec-12 21:31N 43°33' W 002°02'0 0.4
2017-Dec-12 21:00N 43°33' W 002°01'1 1.8
2017-Dec-12 20:30N 43°33' W 002°02'2 3.2
2017-Dec-12 20:00N 43°33' W 002°05'2 3.2
2017-Dec-12 19:30N 43°32' W 002°07'2 3.4
2017-Dec-12 19:00N 43°32' W 002°09'2 3.2
2017-Dec-12 18:31N 43°33' W 002°11'1 2.8
2017-Dec-12 17:59N 43°34' W 002°12'1 3.1
2017-Dec-12 17:30N 43°34' W 002°14'2 3.1
2017-Dec-12 17:00N 43°34' W 002°16'2 3.2
2017-Dec-12 16:31N 43°34' W 002°18'2 3.6
2017-Dec-12 16:01N 43°33' W 002°20'1 2.7
2017-Dec-12 15:31N 43°33' W 002°18'2 3.0
2017-Dec-12 15:00N 43°33' W 002°16'2 3.1
2017-Dec-12 14:30N 43°34' W 002°14'2 3.0
2017-Dec-12 14:01N 43°34' W 002°12'1 2.5
2017-Dec-12 13:31N 43°33' W 002°11'0 0.9
2017-Dec-12 13:00N 43°33' W 002°11'2 3.0
2017-Dec-12 12:30N 43°34' W 002°13'2 3.2
2017-Dec-12 12:01N 43°34' W 002°15'2 3.2
2017-Dec-12 11:30N 43°33' W 002°17'2 3.8
2017-Dec-12 11:00N 43°34' W 002°20'2 3.1
2017-Dec-12 10:30N 43°34' W 002°18'2 3.1
2017-Dec-12 10:01N 43°35' W 002°16'2 3.1
2017-Dec-12 09:30N 43°35' W 002°14'1 2.8
2017-Dec-12 09:00N 43°35' W 002°12'1 2.9
2017-Dec-12 08:30N 43°35' W 002°10'2 3.0
2017-Dec-12 08:01N 43°35' W 002°08'1 2.9
2017-Dec-12 07:31N 43°34' W 002°06'2 3.7
2017-Dec-12 07:00N 43°33' W 002°03'0 0.9
2017-Dec-12 06:31N 43°33' W 002°03'0 0.7
2017-Dec-12 06:01N 43°33' W 002°03'0 0.8
2017-Dec-12 05:30N 43°32' W 002°02'1 2.0
2017-Dec-12 05:00N 43°33' W 002°03'0 0.4
2017-Dec-12 04:30N 43°33' W 002°03'1 1.6
2017-Dec-12 04:00N 43°32' W 002°03'1 1.5
2017-Dec-12 03:31N 43°32' W 002°03'1 1.4
2017-Dec-12 03:00N 43°31' W 002°02'1 2.1
2017-Dec-12 02:31N 43°30' W 002°02'1 2.9
2017-Dec-12 02:00N 43°29' W 002°01'1 2.8
2017-Dec-12 01:30N 43°27' W 002°00'1 2.4
2017-Dec-12 01:00N 43°26' W 001°59'1 2.4
2017-Dec-12 00:31N 43°25' W 001°59'1 3.0
2017-Dec-12 00:01N 43°24' W 001°58'3 5.5
2017-Dec-11 23:30N 43°21' W 001°57'2 0.2
2017-Dec-11 10:32N 43°19' W 001°55'0 0.1
2017-Dec-11 10:29N 43°19' W 001°55'0 0.0
2017-Dec-11 09:55N 43°19' W 001°55'1 0.1
2017-Dec-10 19:16N 43°20' W 001°56'2 8.9
2017-Dec-10 19:00N 43°22' W 001°58'6 9.3
2017-Dec-10 18:23N 43°26' W 002°03'3 9.1
2017-Dec-10 18:00N 43°29' W 002°06'4 7.4
2017-Dec-10 17:30N 43°32' W 002°10'0 0.6
2017-Dec-10 17:01N 43°32' W 002°10'2 3.1
2017-Dec-10 16:30N 43°33' W 002°11'2 3.2
2017-Dec-10 16:00N 43°34' W 002°13'2 3.1
2017-Dec-10 15:30N 43°35' W 002°14'2 3.1
2017-Dec-10 15:00N 43°35' W 002°17'2 3.1
2017-Dec-10 14:30N 43°35' W 002°19'2 4.0
2017-Dec-10 14:01N 43°34' W 002°21'2 3.2
2017-Dec-10 13:31N 43°33' W 002°19'1 1.1
2017-Dec-10 13:01N 43°33' W 002°19'2 3.0
2017-Dec-10 12:30N 43°33' W 002°17'2 3.0
2017-Dec-10 12:01N 43°33' W 002°15'2 3.3
2017-Dec-10 11:31N 43°33' W 002°12'1 2.8
2017-Dec-10 11:01N 43°34' W 002°13'2 3.1
2017-Dec-10 10:31N 43°34' W 002°15'2 3.2
2017-Dec-10 10:00N 43°34' W 002°18'2 3.1
2017-Dec-10 09:31N 43°34' W 002°20'1 2.7
2017-Dec-10 09:01N 43°34' W 002°18'1 2.8
2017-Dec-10 08:30N 43°34' W 002°16'1 2.9
2017-Dec-10 08:01N 43°34' W 002°14'2 3.8
2017-Dec-10 07:30N 43°34' W 002°11'0 0.4
2017-Dec-10 07:01N 43°34' W 002°12'0 0.8
2017-Dec-10 06:30N 43°34' W 002°12'0 0.4
2017-Dec-10 06:00N 43°34' W 002°12'2 3.1
2017-Dec-10 05:31N 43°34' W 002°14'2 3.1
2017-Dec-10 05:00N 43°34' W 002°17'2 3.8
2017-Dec-10 04:30N 43°34' W 002°19'1 2.6
2017-Dec-10 04:01N 43°33' W 002°18'2 3.0
2017-Dec-10 03:30N 43°32' W 002°16'1 3.0
2017-Dec-10 03:01N 43°32' W 002°14'2 3.0
2017-Dec-10 02:31N 43°32' W 002°12'2 3.1
2017-Dec-10 02:01N 43°34' W 002°12'2 3.3
2017-Dec-10 01:31N 43°34' W 002°14'2 3.2
2017-Dec-10 01:00N 43°34' W 002°16'2 3.4
2017-Dec-10 00:30N 43°34' W 002°19'1 2.7
2017-Dec-10 00:01N 43°33' W 002°20'2 3.1
2017-Dec-09 23:30N 43°33' W 002°17'2 3.1
2017-Dec-09 23:01N 43°32' W 002°15'2 3.1
2017-Dec-09 22:30N 43°32' W 002°13'2 3.6
2017-Dec-09 22:01N 43°33' W 002°11'0 0.9
2017-Dec-09 21:31N 43°33' W 002°11'1 1.6
2017-Dec-09 21:01N 43°34' W 002°12'2 3.1
2017-Dec-09 20:31N 43°35' W 002°14'1 3.0
2017-Dec-09 20:00N 43°35' W 002°16'2 3.1
2017-Dec-09 19:31N 43°35' W 002°18'2 4.1
2017-Dec-09 19:01N 43°34' W 002°21'1 2.7
2017-Dec-09 18:30N 43°33' W 002°19'2 3.1
2017-Dec-09 18:01N 43°33' W 002°17'2 3.1
2017-Dec-09 17:31N 43°33' W 002°15'2 3.2
2017-Dec-09 17:01N 43°33' W 002°13'1 2.6
2017-Dec-09 16:31N 43°34' W 002°12'2 3.1
2017-Dec-09 16:00N 43°35' W 002°14'2 3.1
2017-Dec-09 15:31N 43°34' W 002°16'2 3.1
2017-Dec-09 15:01N 43°34' W 002°19'1 2.6
2017-Dec-09 14:30N 43°33' W 002°20'0 0.2
2017-Dec-09 14:00N 43°33' W 002°20'1 3.0
2017-Dec-09 13:31N 43°34' W 002°18'2 3.0
2017-Dec-09 13:00N 43°34' W 002°16'1 3.0
2017-Dec-09 12:30N 43°34' W 002°14'2 3.7
2017-Dec-09 12:00N 43°34' W 002°11'2 3.2
2017-Dec-09 11:31N 43°33' W 002°13'2 3.2
2017-Dec-09 10:59N 43°33' W 002°16'2 3.4
2017-Dec-09 10:31N 43°33' W 002°18'1 2.9
2017-Dec-09 10:00N 43°34' W 002°19'1 2.9
2017-Dec-09 09:30N 43°34' W 002°17'1 2.9
2017-Dec-09 09:00N 43°34' W 002°15'1 3.0
2017-Dec-09 08:31N 43°35' W 002°13'2 3.0
2017-Dec-09 08:01N 43°34' W 002°11'2 4.0
2017-Dec-09 07:31N 43°32' W 002°10'0 0.7
2017-Dec-09 07:00N 43°32' W 002°09'1 1.5
2017-Dec-09 06:30N 43°32' W 002°10'2 3.1
2017-Dec-09 06:00N 43°33' W 002°12'2 3.1
2017-Dec-09 05:30N 43°33' W 002°14'2 3.1
2017-Dec-09 05:00N 43°33' W 002°16'2 3.1
2017-Dec-09 04:30N 43°33' W 002°18'2 3.3
2017-Dec-09 04:00N 43°34' W 002°20'2 3.0
2017-Dec-09 03:31N 43°34' W 002°19'2 3.1
2017-Dec-09 03:00N 43°34' W 002°16'2 3.0
2017-Dec-09 02:30N 43°34' W 002°14'2 4.0
2017-Dec-09 02:00N 43°34' W 002°12'1 1.0
2017-Dec-09 01:31N 43°34' W 002°12'0 0.9
2017-Dec-09 01:01N 43°34' W 002°12'2 3.1
2017-Dec-09 00:31N 43°35' W 002°14'2 3.2
2017-Dec-09 00:01N 43°35' W 002°16'2 3.1
2017-Dec-08 23:30N 43°34' W 002°18'2 3.9
2017-Dec-08 23:00N 43°34' W 002°21'1 2.8
2017-Dec-08 22:30N 43°35' W 002°20'1 3.0
2017-Dec-08 22:01N 43°35' W 002°18'1 3.0
2017-Dec-08 21:31N 43°35' W 002°16'2 3.0
2017-Dec-08 21:00N 43°35' W 002°13'2 4.1
2017-Dec-08 20:30N 43°34' W 002°11'1 2.0
2017-Dec-08 20:00N 43°33' W 002°11'1 2.7
2017-Dec-08 19:30N 43°33' W 002°13'2 3.3
2017-Dec-08 19:00N 43°33' W 002°15'2 3.0
2017-Dec-08 18:31N 43°33' W 002°17'2 3.4
2017-Dec-08 18:00N 43°33' W 002°20'1 2.8
2017-Dec-08 17:30N 43°34' W 002°19'2 3.0
2017-Dec-08 17:00N 43°34' W 002°17'2 3.0
2017-Dec-08 16:30N 43°34' W 002°15'1 3.0
2017-Dec-08 16:00N 43°34' W 002°13'1 3.0
2017-Dec-08 15:30N 43°33' W 002°11'2 3.9
2017-Dec-08 15:01N 43°32' W 002°10'0 0.6
2017-Dec-08 14:30N 43°32' W 002°09'2 3.1
2017-Dec-08 14:00N 43°33' W 002°11'2 3.1
2017-Dec-08 13:28N 43°34' W 002°13'1 3.1
2017-Dec-08 13:00N 43°34' W 002°15'2 3.1
2017-Dec-08 12:31N 43°34' W 002°17'  
Track history (hours):
 
Tides and Currents Weather Stations Pressure Air Temp Water Temp Dewpoint Dewpoint Depression Visibility Wind Speed Wind Dir Waves Ship Positions

Mar Iberico

Last reported at 2017-Dec-18 12:30 UTC. Time now 2017-Dec-18 12:41 UTC.
Position N 43°33' W 002°17'.

Length 30 m; draft 5 m.

Type: Fishing. MMSI: 263407550.

Date/timePositionNaut miles runAvg speedWind from/ knotsBaromVisibWave heightAir tempDewpointWater temp
2017-Dec-18 12:30N 43°33' W 002°17'2 3.7
2017-Dec-18 12:00N 43°33' W 002°19'1 2.5
2017-Dec-18 11:30N 43°34' W 002°19'1 3.0
2017-Dec-18 11:00N 43°34' W 002°17'1 3.0
2017-Dec-18 10:30N 43°34' W 002°15'2 3.3
2017-Dec-18 10:00N 43°34' W 002°13'1 2.2
2017-Dec-18 09:30N 43°35' W 002°13'2 3.1
2017-Dec-18 09:00N 43°35' W 002°15'2 3.1
2017-Dec-18 08:30N 43°35' W 002°17'2 3.1
2017-Dec-18 08:00N 43°34' W 002°19'1 2.3
2017-Dec-18 07:30N 43°34' W 002°20'0 0.2
2017-Dec-18 07:00N 43°34' W 002°20'1 3.0
2017-Dec-18 06:30N 43°33' W 002°18'2 3.1
2017-Dec-18 06:00N 43°33' W 002°16'2 3.0
2017-Dec-18 05:30N 43°32' W 002°15'2 3.0
2017-Dec-18 05:00N 43°31' W 002°13'2 3.4
2017-Dec-18 04:30N 43°32' W 002°10'2 3.1
2017-Dec-18 04:00N 43°33' W 002°12'2 3.1
2017-Dec-18 03:30N 43°34' W 002°14'2 3.1
2017-Dec-18 03:00N 43°34' W 002°16'2 3.3
2017-Dec-18 02:30N 43°34' W 002°18'2 3.5
2017-Dec-18 02:00N 43°33' W 002°21'2 3.1
2017-Dec-18 01:30N 43°33' W 002°19'2 3.2
2017-Dec-18 01:00N 43°32' W 002°17'2 3.2
2017-Dec-18 00:30N 43°32' W 002°14'2 3.2
2017-Dec-18 00:01N 43°32' W 002°12'2 3.1
2017-Dec-17 23:30N 43°32' W 002°10'1 1.5
2017-Dec-17 23:00N 43°32' W 002°09'0 0.4
2017-Dec-17 22:30N 43°32' W 002°09'1 3.0
2017-Dec-17 22:00N 43°33' W 002°11'2 3.1
2017-Dec-17 21:30N 43°34' W 002°13'2 3.2
2017-Dec-17 21:00N 43°34' W 002°15'2 3.1
2017-Dec-17 20:30N 43°33' W 002°17'2 3.4
2017-Dec-17 20:00N 43°33' W 002°19'1 2.6
2017-Dec-17 19:30N 43°35' W 002°19'2 3.1
2017-Dec-17 19:00N 43°35' W 002°17'2 3.0
2017-Dec-17 18:30N 43°35' W 002°15'2 3.1
2017-Dec-17 18:00N 43°35' W 002°13'2 3.3
2017-Dec-17 17:31N 43°34' W 002°11'2 3.2
2017-Dec-17 17:00N 43°34' W 002°08'2 3.0
2017-Dec-17 16:30N 43°34' W 002°06'2 3.9
2017-Dec-17 16:00N 43°34' W 002°04'0 0.3
2017-Dec-17 15:30N 43°34' W 002°04'1 2.0
2017-Dec-17 15:00N 43°34' W 002°05'2 3.1
2017-Dec-17 14:30N 43°34' W 002°07'2 3.2
2017-Dec-17 14:00N 43°34' W 002°10'2 3.2
2017-Dec-17 13:30N 43°34' W 002°12'2 3.0
2017-Dec-17 13:00N 43°34' W 002°14'2 3.1
2017-Dec-17 12:30N 43°34' W 002°16'2 3.1
2017-Dec-17 12:00N 43°33' W 002°18'2 3.8
2017-Dec-17 11:30N 43°34' W 002°21'1 2.5
2017-Dec-17 11:00N 43°34' W 002°19'2 3.1
2017-Dec-17 10:30N 43°34' W 002°17'2 3.1
2017-Dec-17 10:00N 43°34' W 002°15'2 3.1
2017-Dec-17 09:30N 43°34' W 002°13'2 3.0
2017-Dec-17 09:00N 43°33' W 002°11'2 4.0
2017-Dec-17 08:30N 43°32' W 002°09'0 0.3
2017-Dec-17 08:00N 43°32' W 002°09'1 1.1
2017-Dec-17 07:30N 43°32' W 002°10'2 3.2
2017-Dec-17 07:00N 43°33' W 002°12'2 3.1
2017-Dec-17 06:30N 43°33' W 002°14'2 3.0
2017-Dec-17 06:00N 43°33' W 002°16'2 3.1
2017-Dec-17 05:30N 43°33' W 002°18'2 3.9
2017-Dec-17 05:00N 43°33' W 002°21'1 2.8
2017-Dec-17 04:30N 43°34' W 002°19'2 3.0
2017-Dec-17 04:00N 43°35' W 002°17'2 3.1
2017-Dec-17 03:30N 43°34' W 002°15'2 3.1
2017-Dec-17 03:00N 43°35' W 002°13'2 3.5
2017-Dec-17 02:30N 43°34' W 002°11'2 3.3
2017-Dec-17 02:00N 43°34' W 002°08'2 3.0
2017-Dec-17 01:30N 43°34' W 002°06'1 3.0
2017-Dec-17 01:00N 43°33' W 002°04'3 5.4
2017-Dec-17 00:30N 43°33' W 002°01'0 0.4
2017-Dec-17 00:00N 43°33' W 002°00'1 1.7
2017-Dec-16 23:30N 43°33' W 002°01'2 3.3
2017-Dec-16 23:00N 43°33' W 002°04'2 3.3
2017-Dec-16 22:30N 43°33' W 002°06'2 3.1
2017-Dec-16 22:00N 43°33' W 002°08'2 3.1
2017-Dec-16 21:30N 43°33' W 002°10'2 3.1
2017-Dec-16 21:00N 43°33' W 002°12'2 3.1
2017-Dec-16 20:30N 43°33' W 002°15'2 3.2
2017-Dec-16 20:00N 43°33' W 002°17'1 2.9
2017-Dec-16 19:30N 43°33' W 002°19'2 3.3
2017-Dec-16 19:00N 43°34' W 002°20'1 3.0
2017-Dec-16 18:30N 43°35' W 002°18'1 3.0
2017-Dec-16 18:00N 43°35' W 002°16'1 3.0
2017-Dec-16 17:30N 43°35' W 002°14'1 3.0
2017-Dec-16 17:00N 43°34' W 002°12'1 2.4
2017-Dec-16 16:31N 43°33' W 002°11'0 0.8
2017-Dec-16 16:00N 43°33' W 002°12'2 3.1
2017-Dec-16 15:30N 43°34' W 002°14'2 3.1
2017-Dec-16 15:00N 43°34' W 002°16'2 3.1
2017-Dec-16 14:30N 43°34' W 002°18'2 4.0
2017-Dec-16 14:01N 43°34' W 002°21'1 2.7
2017-Dec-16 13:30N 43°33' W 002°19'2 3.0
2017-Dec-16 13:00N 43°33' W 002°17'1 3.0
2017-Dec-16 12:30N 43°33' W 002°15'2 3.0
2017-Dec-16 12:00N 43°33' W 002°13'1 2.9
2017-Dec-16 11:30N 43°34' W 002°11'1 2.9
2017-Dec-16 11:00N 43°34' W 002°13'1 3.0
2017-Dec-16 10:30N 43°34' W 002°15'2 3.1
2017-Dec-16 10:00N 43°34' W 002°17'2 3.6
2017-Dec-16 09:30N 43°34' W 002°20'1 2.5
2017-Dec-16 09:00N 43°35' W 002°19'2 3.0
2017-Dec-16 08:31N 43°35' W 002°17'1 2.9
2017-Dec-16 08:00N 43°34' W 002°15'2 3.2
2017-Dec-16 07:30N 43°34' W 002°12'1 2.9
2017-Dec-16 07:00N 43°34' W 002°10'0 0.2
2017-Dec-16 06:30N 43°34' W 002°10'0 1.0
2017-Dec-16 06:00N 43°34' W 002°10'0 0.2
2017-Dec-16 05:30N 43°34' W 002°10'0 0.9
2017-Dec-16 05:00N 43°34' W 002°10'1 1.8
2017-Dec-16 04:30N 43°34' W 002°09'0 0.9
2017-Dec-16 04:00N 43°34' W 002°10'0 0.4
2017-Dec-16 03:30N 43°34' W 002°10'1 2.3
2017-Dec-16 03:00N 43°33' W 002°09'2 3.4
2017-Dec-16 02:30N 43°32' W 002°08'2 4.6
2017-Dec-16 02:00N 43°30' W 002°06'2 4.8
2017-Dec-16 01:30N 43°28' W 002°04'3 4.9
2017-Dec-16 01:00N 43°26' W 002°02'3 5.3
2017-Dec-16 00:31N 43°24' W 001°60'2 4.9
2017-Dec-16 00:00N 43°22' W 001°58'3 5.0
2017-Dec-15 23:22N 43°19' W 001°55'0 0.1
2017-Dec-15 21:13N 43°19' W 001°55'0 0.0
2017-Dec-15 17:01N 43°19' W 001°55'0 0.0
2017-Dec-15 16:51N 43°19' W 001°55'0 0.0
2017-Dec-15 16:08N 43°19' W 001°55'0 0.0
2017-Dec-15 15:49N 43°19' W 001°55'0 0.0
2017-Dec-15 10:50N 43°19' W 001°55'0 0.3
2017-Dec-15 10:30N 43°19' W 001°55'0 0.0
2017-Dec-15 10:00N 43°19' W 001°55'1 2.0
2017-Dec-15 09:25N 43°20' W 001°56'4 9.2
2017-Dec-15 09:01N 43°23' W 001°59'4 8.8
2017-Dec-15 08:31N 43°27' W 002°03'4 7.3
2017-Dec-15 08:01N 43°30' W 002°06'3 5.2
2017-Dec-15 07:31N 43°32' W 002°08'0 0.4
2017-Dec-15 07:00N 43°32' W 002°08'0 0.7
2017-Dec-15 06:31N 43°32' W 002°09'0 0.4
2017-Dec-15 06:01N 43°31' W 002°09'1 1.7
2017-Dec-15 05:31N 43°31' W 002°08'1 2.3
2017-Dec-15 05:00N 43°30' W 002°08'1 1.5
2017-Dec-15 04:30N 43°29' W 002°07'1 2.0
2017-Dec-15 04:00N 43°29' W 002°06'2 1.6
2017-Dec-15 02:30N 43°29' W 002°03'2 1.3
2017-Dec-15 01:01N 43°29' W 002°00'1 2.6
2017-Dec-15 00:30N 43°29' W 001°58'9 1.5
2017-Dec-14 18:31N 43°32' W 002°10'2 3.1
2017-Dec-14 18:00N 43°33' W 002°12'2 3.0
2017-Dec-14 17:30N 43°33' W 002°14'2 3.0
2017-Dec-14 17:01N 43°33' W 002°16'2 3.0
2017-Dec-14 16:31N 43°33' W 002°18'2 3.6
2017-Dec-14 16:01N 43°34' W 002°21'3 2.8
2017-Dec-14 15:00N 43°34' W 002°17'1 3.0
2017-Dec-14 14:31N 43°34' W 002°15'1 2.9
2017-Dec-14 14:01N 43°33' W 002°13'2 3.0
2017-Dec-14 13:31N 43°33' W 002°11'1 1.4
2017-Dec-14 13:00N 43°32' W 002°10'4 7.2
2017-Dec-14 12:31N 43°33' W 002°15'0 0.7
2017-Dec-14 12:01N 43°32' W 002°15'2 3.3
2017-Dec-14 11:30N 43°32' W 002°13'2 3.2
2017-Dec-14 11:01N 43°34' W 002°13'2 3.1
2017-Dec-14 10:31N 43°34' W 002°15'2 3.1
2017-Dec-14 10:01N 43°34' W 002°17'2 3.8
2017-Dec-14 09:30N 43°34' W 002°20'1 2.4
2017-Dec-14 09:00N 43°34' W 002°18'1 2.9
2017-Dec-14 08:30N 43°34' W 002°17'1 2.9
2017-Dec-14 08:00N 43°34' W 002°15'1 2.9
2017-Dec-14 07:31N 43°34' W 002°13'2 3.7
2017-Dec-14 07:01N 43°34' W 002°10'0 0.3
2017-Dec-14 06:31N 43°34' W 002°10'0 0.4
2017-Dec-14 06:00N 43°34' W 002°10'1 2.9
2017-Dec-14 05:30N 43°33' W 002°09'2 4.6
2017-Dec-14 05:01N 43°31' W 002°07'3 6.7
2017-Dec-14 04:30N 43°29' W 002°04'3 6.8
2017-Dec-14 04:00N 43°26' W 002°01'3 6.9
2017-Dec-14 03:30N 43°23' W 001°58'4 2.0
2017-Dec-14 01:40N 43°20' W 001°56'2 7.5
2017-Dec-14 01:28N 43°21' W 001°57'4 8.9
2017-Dec-14 01:01N 43°24' W 002°01'5 9.0
2017-Dec-14 00:31N 43°28' W 002°05'4 9.0
2017-Dec-14 00:00N 43°31' W 002°09'1 1.3
2017-Dec-13 23:30N 43°31' W 002°10'2 3.1
2017-Dec-13 23:00N 43°32' W 002°12'2 3.1
2017-Dec-13 22:31N 43°33' W 002°14'2 3.3
2017-Dec-13 22:01N 43°33' W 002°16'2 3.9
2017-Dec-13 21:31N 43°33' W 002°18'1 2.6
2017-Dec-13 21:01N 43°32' W 002°17'2 3.1
2017-Dec-13 20:30N 43°32' W 002°15'2 3.1
2017-Dec-13 20:01N 43°32' W 002°13'2 3.6
2017-Dec-13 19:30N 43°33' W 002°11'1 1.5
2017-Dec-13 19:00N 43°33' W 002°12'1 1.7
2017-Dec-13 18:30N 43°33' W 002°13'3 3.1
2017-Dec-13 17:40N 43°33' W 002°16'0 3.1
2017-Dec-13 17:30N 43°33' W 002°17'2 3.6
2017-Dec-13 17:01N 43°33' W 002°20'1 2.4
2017-Dec-13 16:31N 43°34' W 002°20'1 3.0
2017-Dec-13 16:01N 43°34' W 002°18'2 3.0
2017-Dec-13 15:31N 43°34' W 002°16'2 3.1
2017-Dec-13 15:00N 43°34' W 002°14'2 3.1
2017-Dec-13 14:31N 43°33' W 002°12'2 3.8
2017-Dec-13 14:01N 43°32' W 002°10'1 1.1
2017-Dec-13 13:31N 43°32' W 002°10'1 1.2
2017-Dec-13 13:01N 43°33' W 002°11'2 3.2
2017-Dec-13 12:30N 43°34' W 002°12'2 3.1
2017-Dec-13 12:00N 43°34' W 002°14'2 3.1
2017-Dec-13 11:30N 43°33' W 002°16'2 3.1
2017-Dec-13 11:00N 43°33' W 002°19'1 2.7
2017-Dec-13 10:30N 43°34' W 002°20'1 3.0
2017-Dec-13 10:00N 43°34' W 002°18'2 3.1
2017-Dec-13 09:31N 43°34' W 002°15'2 3.1
2017-Dec-13 09:01N 43°33' W 002°13'1 2.0
2017-Dec-13 08:30N 43°34' W 002°13'2 3.1
2017-Dec-13 08:00N 43°35' W 002°15'1 3.0
2017-Dec-13 07:30N 43°34' W 002°17'2 3.7
2017-Dec-13 07:01N 43°34' W 002°20'1 1.5
2017-Dec-13 06:31N 43°33' W 002°19'1 1.1
2017-Dec-13 06:01N 43°33' W 002°20'1 2.8
2017-Dec-13 05:30N 43°33' W 002°18'2 3.1
2017-Dec-13 05:00N 43°33' W 002°16'2 3.1
2017-Dec-13 04:30N 43°32' W 002°14'2 3.6
2017-Dec-13 04:01N 43°32' W 002°12'2 3.3
2017-Dec-13 03:30N 43°34' W 002°12'2 3.2
2017-Dec-13 03:00N 43°34' W 002°14'2 3.2
2017-Dec-13 02:30N 43°34' W 002°16'2 3.9
2017-Dec-13 02:01N 43°34' W 002°19'1 2.7
2017-Dec-13 01:30N 43°33' W 002°19'2 3.2
2017-Dec-13 01:00N 43°32' W 002°17'2 3.2
2017-Dec-13 00:31N 43°32' W 002°15'2 3.2
2017-Dec-13 00:00N 43°32' W 002°12'2 3.1
2017-Dec-12 23:30N 43°32' W 002°10'2 3.1
2017-Dec-12 23:01N 43°32' W 002°08'2 3.1
2017-Dec-12 22:31N 43°32' W 002°06'2 3.1
2017-Dec-12 22:00N 43°33' W 002°04'2 3.6
2017-Dec-12 21:31N 43°33' W 002°02'0 0.4
2017-Dec-12 21:00N 43°33' W 002°01'1 1.8
2017-Dec-12 20:30N 43°33' W 002°02'2 3.2
2017-Dec-12 20:00N 43°33' W 002°05'2 3.2
2017-Dec-12 19:30N 43°32' W 002°07'2 3.4
2017-Dec-12 19:00N 43°32' W 002°09'2 3.2
2017-Dec-12 18:31N 43°33' W 002°11'1 2.8
2017-Dec-12 17:59N 43°34' W 002°12'1 3.1
2017-Dec-12 17:30N 43°34' W 002°14'2 3.1
2017-Dec-12 17:00N 43°34' W 002°16'2 3.2
2017-Dec-12 16:31N 43°34' W 002°18'2 3.6
2017-Dec-12 16:01N 43°33' W 002°20'1 2.7
2017-Dec-12 15:31N 43°33' W 002°18'2 3.0
2017-Dec-12 15:00N 43°33' W 002°16'2 3.1
2017-Dec-12 14:30N 43°34' W 002°14'2 3.0
2017-Dec-12 14:01N 43°34' W 002°12'1 2.5
2017-Dec-12 13:31N 43°33' W 002°11'0 0.9
2017-Dec-12 13:00N 43°33' W 002°11'2 3.0
2017-Dec-12 12:30N 43°34' W 002°13'2 3.2
2017-Dec-12 12:01N 43°34' W 002°15'2 3.2
2017-Dec-12 11:30N 43°33' W 002°17'2 3.8
2017-Dec-12 11:00N 43°34' W 002°20'2 3.1
2017-Dec-12 10:30N 43°34' W 002°18'2 3.1
2017-Dec-12 10:01N 43°35' W 002°16'2 3.1
2017-Dec-12 09:30N 43°35' W 002°14'1 2.8
2017-Dec-12 09:00N 43°35' W 002°12'1 2.9
2017-Dec-12 08:30N 43°35' W 002°10'2 3.0
2017-Dec-12 08:01N 43°35' W 002°08'1 2.9
2017-Dec-12 07:31N 43°34' W 002°06'2 3.7
2017-Dec-12 07:00N 43°33' W 002°03'0 0.9
2017-Dec-12 06:31N 43°33' W 002°03'0 0.7
2017-Dec-12 06:01N 43°33' W 002°03'0 0.8
2017-Dec-12 05:30N 43°32' W 002°02'1 2.0
2017-Dec-12 05:00N 43°33' W 002°03'0 0.4
2017-Dec-12 04:30N 43°33' W 002°03'1 1.6
2017-Dec-12 04:00N 43°32' W 002°03'1 1.5
2017-Dec-12 03:31N 43°32' W 002°03'1 1.4
2017-Dec-12 03:00N 43°31' W 002°02'1 2.1
2017-Dec-12 02:31N 43°30' W 002°02'1 2.9
2017-Dec-12 02:00N 43°29' W 002°01'1 2.8
2017-Dec-12 01:30N 43°27' W 002°00'1 2.4
2017-Dec-12 01:00N 43°26' W 001°59'1 2.4
2017-Dec-12 00:31N 43°25' W 001°59'1 3.0
2017-Dec-12 00:01N 43°24' W 001°58'3 5.5
2017-Dec-11 23:30N 43°21' W 001°57'2 0.2
2017-Dec-11 10:32N 43°19' W 001°55'0 0.1
2017-Dec-11 10:29N 43°19' W 001°55'0 0.0
2017-Dec-11 09:55N 43°19' W 001°55'1 0.1
2017-Dec-10 19:16N 43°20' W 001°56'2 8.9
2017-Dec-10 19:00N 43°22' W 001°58'6 9.3
2017-Dec-10 18:23N 43°26' W 002°03'3 9.1
2017-Dec-10 18:00N 43°29' W 002°06'4 7.4
2017-Dec-10 17:30N 43°32' W 002°10'0 0.6
2017-Dec-10 17:01N 43°32' W 002°10'2 3.1
2017-Dec-10 16:30N 43°33' W 002°11'2 3.2
2017-Dec-10 16:00N 43°34' W 002°13'2 3.1
2017-Dec-10 15:30N 43°35' W 002°14'2 3.1
2017-Dec-10 15:00N 43°35' W 002°17'2 3.1
2017-Dec-10 14:30N 43°35' W 002°19'2 4.0
2017-Dec-10 14:01N 43°34' W 002°21'2 3.2
2017-Dec-10 13:31N 43°33' W 002°19'1 1.1
2017-Dec-10 13:01N 43°33' W 002°19'2 3.0
2017-Dec-10 12:30N 43°33' W 002°17'2 3.0
2017-Dec-10 12:01N 43°33' W 002°15'2 3.3
2017-Dec-10 11:31N 43°33' W 002°12'1 2.8
2017-Dec-10 11:01N 43°34' W 002°13'2 3.1
2017-Dec-10 10:31N 43°34' W 002°15'2 3.2
2017-Dec-10 10:00N 43°34' W 002°18'2 3.1
2017-Dec-10 09:31N 43°34' W 002°20'1 2.7
2017-Dec-10 09:01N 43°34' W 002°18'1 2.8
2017-Dec-10 08:30N 43°34' W 002°16'1 2.9
2017-Dec-10 08:01N 43°34' W 002°14'2 3.8
2017-Dec-10 07:30N 43°34' W 002°11'0 0.4
2017-Dec-10 07:01N 43°34' W 002°12'0 0.8
2017-Dec-10 06:30N 43°34' W 002°12'0 0.4
2017-Dec-10 06:00N 43°34' W 002°12'2 3.1
2017-Dec-10 05:31N 43°34' W 002°14'2 3.1
2017-Dec-10 05:00N 43°34' W 002°17'2 3.8
2017-Dec-10 04:30N 43°34' W 002°19'1 2.6
2017-Dec-10 04:01N 43°33' W 002°18'2 3.0
2017-Dec-10 03:30N 43°32' W 002°16'1 3.0
2017-Dec-10 03:01N 43°32' W 002°14'2 3.0
2017-Dec-10 02:31N 43°32' W 002°12'2 3.1
2017-Dec-10 02:01N 43°34' W 002°12'2 3.3
2017-Dec-10 01:31N 43°34' W 002°14'2 3.2
2017-Dec-10 01:00N 43°34' W 002°16'2 3.4
2017-Dec-10 00:30N 43°34' W 002°19'1 2.7
2017-Dec-10 00:01N 43°33' W 002°20'2 3.1
2017-Dec-09 23:30N 43°33' W 002°17'2 3.1
2017-Dec-09 23:01N 43°32' W 002°15'2 3.1
2017-Dec-09 22:30N 43°32' W 002°13'2 3.6
2017-Dec-09 22:01N 43°33' W 002°11'0 0.9
2017-Dec-09 21:31N 43°33' W 002°11'1 1.6
2017-Dec-09 21:01N 43°34' W 002°12'2 3.1
2017-Dec-09 20:31N 43°35' W 002°14'1 3.0
2017-Dec-09 20:00N 43°35' W 002°16'2 3.1
2017-Dec-09 19:31N 43°35' W 002°18'2 4.1
2017-Dec-09 19:01N 43°34' W 002°21'1 2.7
2017-Dec-09 18:30N 43°33' W 002°19'2 3.1
2017-Dec-09 18:01N 43°33' W 002°17'2 3.1
2017-Dec-09 17:31N 43°33' W 002°15'2 3.2
2017-Dec-09 17:01N 43°33' W 002°13'1 2.6
2017-Dec-09 16:31N 43°34' W 002°12'2 3.1
2017-Dec-09 16:00N 43°35' W 002°14'2 3.1
2017-Dec-09 15:31N 43°34' W 002°16'2 3.1
2017-Dec-09 15:01N 43°34' W 002°19'1 2.6
2017-Dec-09 14:30N 43°33' W 002°20'0 0.2
2017-Dec-09 14:00N 43°33' W 002°20'1 3.0
2017-Dec-09 13:31N 43°34' W 002°18'2 3.0
2017-Dec-09 13:00N 43°34' W 002°16'1 3.0
2017-Dec-09 12:30N 43°34' W 002°14'2 3.7
2017-Dec-09 12:00N 43°34' W 002°11'2 3.2
2017-Dec-09 11:31N 43°33' W 002°13'2 3.2
2017-Dec-09 10:59N 43°33' W 002°16'2 3.4
2017-Dec-09 10:31N 43°33' W 002°18'1 2.9
2017-Dec-09 10:00N 43°34' W 002°19'1 2.9
2017-Dec-09 09:30N 43°34' W 002°17'1 2.9
2017-Dec-09 09:00N 43°34' W 002°15'1 3.0
2017-Dec-09 08:31N 43°35' W 002°13'2 3.0
2017-Dec-09 08:01N 43°34' W 002°11'2 4.0
2017-Dec-09 07:31N 43°32' W 002°10'0 0.7
2017-Dec-09 07:00N 43°32' W 002°09'1 1.5
2017-Dec-09 06:30N 43°32' W 002°10'2 3.1
2017-Dec-09 06:00N 43°33' W 002°12'2 3.1
2017-Dec-09 05:30N 43°33' W 002°14'2 3.1
2017-Dec-09 05:00N 43°33' W 002°16'2 3.1
2017-Dec-09 04:30N 43°33' W 002°18'2 3.3
2017-Dec-09 04:00N 43°34' W 002°20'2 3.0
2017-Dec-09 03:31N 43°34' W 002°19'2 3.1
2017-Dec-09 03:00N 43°34' W 002°16'2 3.0
2017-Dec-09 02:30N 43°34' W 002°14'2 4.0
2017-Dec-09 02:00N 43°34' W 002°12'1 1.0
2017-Dec-09 01:31N 43°34' W 002°12'0 0.9
2017-Dec-09 01:01N 43°34' W 002°12'2 3.1
2017-Dec-09 00:31N 43°35' W 002°14'2 3.2
2017-Dec-09 00:01N 43°35' W 002°16'2 3.1
2017-Dec-08 23:30N 43°34' W 002°18'2 3.9
2017-Dec-08 23:00N 43°34' W 002°21'1 2.8
2017-Dec-08 22:30N 43°35' W 002°20'1 3.0
2017-Dec-08 22:01N 43°35' W 002°18'1 3.0
2017-Dec-08 21:31N 43°35' W 002°16'2 3.0
2017-Dec-08 21:00N 43°35' W 002°13'2 4.1
2017-Dec-08 20:30N 43°34' W 002°11'1 2.0
2017-Dec-08 20:00N 43°33' W 002°11'1 2.7
2017-Dec-08 19:30N 43°33' W 002°13'2 3.3
2017-Dec-08 19:00N 43°33' W 002°15'2 3.0
2017-Dec-08 18:31N 43°33' W 002°17'2 3.4
2017-Dec-08 18:00N 43°33' W 002°20'1 2.8
2017-Dec-08 17:30N 43°34' W 002°19'2 3.0
2017-Dec-08 17:00N 43°34' W 002°17'2 3.0
2017-Dec-08 16:30N 43°34' W 002°15'1 3.0
2017-Dec-08 16:00N 43°34' W 002°13'1 3.0
2017-Dec-08 15:30N 43°33' W 002°11'2 3.9
2017-Dec-08 15:01N 43°32' W 002°10'0 0.6
2017-Dec-08 14:30N 43°32' W 002°09'2 3.1
2017-Dec-08 14:00N 43°33' W 002°11'2 3.1
2017-Dec-08 13:28N 43°34' W 002°13'1 3.1
2017-Dec-08 13:00N 43°34' W 002°15'2 3.1
2017-Dec-08 12:31N 43°34' W 002°17'  

Dump ship's entire track history